createdAt,value
2022-08-14T00:03:00.102Z,15.67
2022-08-14T00:07:58.249Z,16.00
2022-08-14T00:12:57.907Z,16.80
2022-08-14T00:17:56.501Z,15.40
2022-08-14T00:22:56.346Z,15.47
2022-08-14T00:27:57.058Z,15.60
2022-08-14T00:32:56.357Z,15.67
2022-08-14T00:37:54.759Z,14.70
2022-08-14T00:42:56.314Z,14.07
2022-08-14T00:48:11.717Z,14.60
2022-08-14T00:53:10.679Z,13.93
2022-08-14T00:58:32.585Z,13.60
2022-08-14T01:03:39.491Z,11.50
2022-08-14T01:08:51.577Z,11.80
2022-08-14T01:14:00.845Z,11.43
2022-08-14T01:19:19.645Z,10.67
2022-08-14T01:24:24.858Z,11.37
2022-08-14T01:30:04.329Z,10.57
2022-08-14T01:35:18.267Z,10.77
2022-08-14T01:40:11.122Z,10.67
2022-08-14T01:45:12.807Z,10.77
2022-08-14T01:50:26.670Z,11.53
2022-08-14T01:55:29.201Z,9.83
2022-08-14T02:00:27.657Z,10.47
2022-08-14T02:05:29.441Z,10.00
2022-08-14T02:10:46.739Z,9.70
2022-08-14T02:15:48.703Z,10.90
2022-08-14T02:20:48.740Z,9.63
2022-08-14T02:25:54.585Z,10.50
2022-08-14T02:30:53.463Z,10.93
2022-08-14T02:36:04.949Z,10.90
2022-08-14T02:41:08.994Z,10.57
2022-08-14T02:46:12.541Z,10.17
2022-08-14T02:51:12.670Z,11.63
2022-08-14T02:56:30.319Z,10.03
2022-08-14T03:01:50.621Z,10.67
2022-08-14T03:07:06.141Z,10.23
2022-08-14T03:12:07.668Z,10.27
2022-08-14T03:17:10.362Z,10.80
2022-08-14T03:22:09.339Z,10.40
2022-08-14T03:27:17.064Z,10.60
2022-08-14T03:32:15.203Z,11.33
2022-08-14T03:37:51.035Z,10.80
2022-08-14T03:42:36.123Z,11.87
2022-08-14T03:47:46.405Z,11.97
2022-08-14T03:52:55.558Z,12.40
2022-08-14T03:57:55.864Z,11.60
2022-08-14T04:02:55.295Z,11.50
2022-08-14T04:08:08.294Z,11.13
2022-08-14T04:13:12.941Z,11.87
2022-08-14T04:18:11.896Z,11.73
2022-08-14T04:23:18.420Z,10.40
2022-08-14T04:29:06.944Z,10.40
2022-08-14T04:33:42.278Z,11.60
2022-08-14T04:38:57.969Z,11.00
2022-08-14T04:43:59.081Z,10.27
2022-08-14T04:48:59.872Z,11.07
2022-08-14T04:53:58.302Z,10.20
2022-08-14T04:59:01.552Z,10.20
2022-08-14T05:04:00.397Z,9.90
2022-08-14T05:09:00.143Z,9.93
2022-08-14T05:14:34.597Z,9.60
2022-08-14T05:19:27.373Z,9.53
2022-08-14T05:24:27.376Z,9.70
2022-08-14T05:29:27.440Z,9.70
2022-08-14T05:34:31.695Z,9.20
2022-08-14T05:39:30.255Z,9.67
2022-08-14T05:44:31.009Z,9.90
2022-08-14T05:49:32.980Z,9.80
2022-08-14T05:54:35.573Z,8.90
2022-08-14T05:59:36.523Z,8.80
2022-08-14T06:04:34.959Z,9.93
2022-08-14T06:09:35.548Z,10.03
2022-08-14T06:14:39.752Z,9.60
2022-08-14T06:19:37.757Z,9.87
2022-08-14T06:24:35.889Z,10.40
2022-08-14T06:29:35.001Z,10.60
2022-08-14T06:35:03.561Z,9.90
2022-08-14T06:39:57.203Z,8.57
2022-08-14T06:44:55.207Z,8.60
2022-08-14T06:49:57.993Z,8.97
2022-08-14T06:54:57.030Z,8.30
2022-08-14T06:59:55.055Z,9.47
2022-08-14T07:05:12.431Z,10.10
2022-08-14T07:10:22.062Z,8.83
2022-08-14T07:15:23.244Z,9.17
2022-08-14T07:20:30.710Z,9.77
2022-08-14T07:25:32.461Z,8.97
2022-08-14T07:30:33.702Z,9.30
2022-08-14T07:35:37.525Z,8.53
2022-08-14T07:40:41.310Z,9.37
2022-08-14T07:45:43.642Z,8.73
2022-08-14T07:50:45.413Z,9.83
2022-08-14T07:55:45.276Z,8.87
2022-08-14T08:00:44.281Z,7.83
2022-08-14T08:05:52.723Z,8.70
2022-08-14T08:11:02.546Z,9.13
2022-08-14T08:16:03.127Z,8.67
2022-08-14T08:21:02.893Z,8.53
2022-08-14T08:26:01.101Z,8.30
2022-08-14T08:31:01.159Z,8.77
2022-08-14T08:36:00.565Z,7.33
2022-08-14T08:41:01.464Z,7.50
2022-08-14T08:46:01.491Z,7.33
2022-08-14T08:51:03.448Z,6.37
2022-08-14T08:56:05.167Z,7.33
2022-08-14T09:01:03.533Z,7.93
2022-08-14T09:06:03.797Z,8.20
2022-08-14T09:11:18.474Z,6.97
2022-08-14T09:16:21.894Z,6.93
2022-08-14T09:21:23.837Z,6.57
2022-08-14T09:26:23.642Z,6.80
2022-08-14T09:31:27.925Z,7.20
2022-08-14T09:36:56.661Z,6.20
2022-08-14T09:42:22.026Z,6.90
2022-08-14T09:47:52.452Z,6.10
2022-08-14T09:52:55.055Z,6.80
2022-08-14T09:58:19.258Z,5.73
2022-08-14T10:03:33.390Z,5.90
2022-08-14T10:08:42.380Z,5.87
2022-08-14T10:13:53.173Z,5.30
2022-08-14T10:19:02.541Z,5.10
2022-08-14T10:24:00.992Z,5.30
2022-08-14T10:29:19.591Z,4.87
2022-08-14T10:34:35.517Z,4.10
2022-08-14T10:39:35.313Z,4.63
2022-08-14T10:44:38.692Z,3.53
2022-08-14T10:49:39.671Z,4.13
2022-08-14T10:54:42.156Z,4.10
2022-08-14T10:59:46.219Z,3.87
2022-08-14T11:04:45.903Z,4.00
2022-08-14T11:09:54.777Z,4.30
2022-08-14T11:15:01.816Z,4.00
2022-08-14T11:20:03.124Z,3.43
2022-08-14T11:25:06.468Z,5.10
2022-08-14T11:30:51.678Z,4.10
2022-08-14T11:35:44.006Z,3.97
2022-08-14T11:40:47.248Z,3.97
2022-08-14T11:45:50.316Z,3.73
2022-08-14T11:50:54.403Z,4.20
2022-08-14T11:55:58.307Z,3.93
2022-08-14T12:01:01.808Z,4.20
2022-08-14T12:06:06.421Z,3.80
2022-08-14T12:11:24.416Z,4.47
2022-08-14T12:16:25.020Z,4.27
2022-08-14T12:21:25.672Z,4.50
2022-08-14T12:26:39.616Z,4.40
2022-08-14T12:31:44.946Z,4.07
2022-08-14T12:36:45.163Z,4.50
2022-08-14T12:41:53.930Z,4.60
2022-08-14T12:47:06.241Z,4.20
2022-08-14T12:52:16.986Z,4.90
2022-08-14T12:57:19.677Z,4.53
2022-08-14T13:02:26.953Z,4.30
2022-08-14T13:07:32.403Z,4.50
2022-08-14T13:12:39.857Z,4.60
2022-08-14T13:17:54.173Z,5.20
2022-08-14T13:22:56.210Z,4.87
2022-08-14T13:27:57.627Z,4.53
2022-08-14T13:33:00.110Z,4.50
2022-08-14T13:37:59.492Z,4.40
2022-08-14T13:42:57.834Z,4.47
2022-08-14T13:47:58.421Z,4.40
2022-08-14T13:53:01.323Z,4.17
2022-08-14T13:58:05.250Z,4.20
2022-08-14T14:03:06.395Z,3.60
2022-08-14T14:08:06.943Z,3.90
2022-08-14T14:13:05.906Z,3.77
2022-08-14T14:18:05.449Z,3.93
2022-08-14T14:23:24.377Z,3.53
2022-08-14T14:28:31.114Z,4.23
2022-08-14T14:33:50.732Z,3.43
2022-08-14T14:38:52.849Z,3.43
2022-08-14T14:43:52.185Z,3.10
2022-08-14T14:48:54.675Z,2.87
2022-08-14T14:53:53.692Z,3.23
2022-08-14T14:58:52.216Z,3.10
2022-08-14T15:03:54.247Z,3.00
2022-08-14T15:08:58.133Z,2.97
2022-08-14T15:13:57.768Z,2.73
2022-08-14T15:18:57.168Z,3.07
2022-08-14T15:23:55.739Z,2.87
2022-08-14T15:29:03.164Z,2.50
2022-08-14T15:34:43.692Z,2.80
2022-08-14T15:39:34.120Z,2.67
2022-08-14T15:44:36.732Z,2.47
2022-08-14T15:49:44.293Z,3.27
2022-08-14T15:54:43.268Z,2.87
2022-08-14T15:59:58.881Z,2.70
2022-08-14T16:04:58.342Z,3.10
2022-08-14T16:10:27.562Z,3.03
2022-08-14T16:15:15.931Z,2.73
2022-08-14T16:20:42.445Z,2.90
2022-08-14T16:25:37.255Z,2.80
2022-08-14T16:30:35.818Z,3.13
2022-08-14T16:35:41.934Z,3.17
2022-08-14T16:41:14.492Z,2.80
2022-08-14T16:46:15.414Z,3.20
2022-08-14T16:51:17.700Z,3.30
2022-08-14T16:56:23.802Z,3.20
2022-08-14T17:01:27.170Z,3.43
2022-08-14T17:06:39.594Z,3.20
2022-08-14T17:11:54.580Z,3.17
2022-08-14T17:16:57.858Z,4.00
2022-08-14T17:21:57.413Z,4.13
2022-08-14T17:26:55.980Z,5.07
2022-08-14T17:32:01.803Z,4.83
2022-08-14T17:37:02.592Z,5.40
2022-08-14T17:42:03.002Z,5.20
2022-08-14T17:47:03.120Z,5.60
2022-08-14T17:52:07.537Z,5.20
2022-08-14T17:57:17.398Z,6.37
2022-08-14T18:02:19.470Z,5.80
2022-08-14T18:07:59.459Z,6.03
2022-08-14T18:12:43.931Z,5.73
2022-08-14T18:17:50.610Z,5.93
2022-08-14T18:22:53.246Z,6.10
2022-08-14T18:27:52.461Z,6.03
2022-08-14T18:32:56.155Z,6.27
2022-08-14T18:38:26.315Z,6.00
2022-08-14T18:43:44.833Z,5.33
2022-08-14T18:49:15.945Z,4.80
2022-08-14T18:54:32.813Z,4.87
2022-08-14T18:59:42.413Z,5.10
2022-08-14T19:04:42.603Z,6.00
2022-08-14T19:09:57.852Z,5.73
2022-08-14T19:15:08.755Z,5.50
2022-08-14T19:20:08.178Z,5.60
2022-08-14T19:25:08.979Z,6.33
2022-08-14T19:30:24.317Z,5.93
2022-08-14T19:35:55.488Z,6.50
2022-08-14T19:41:01.423Z,5.33
2022-08-14T19:45:59.710Z,6.73
2022-08-14T19:51:02.451Z,5.80
2022-08-14T19:56:04.893Z,6.50
2022-08-14T20:01:08.537Z,6.57
2022-08-14T20:06:08.826Z,6.83
2022-08-14T20:11:44.666Z,6.63
2022-08-14T20:16:49.373Z,6.77
2022-08-14T20:22:00.551Z,6.90
2022-08-14T20:27:21.017Z,6.77
2022-08-14T20:32:19.844Z,6.47
2022-08-14T20:37:22.805Z,7.10
2022-08-14T20:42:49.242Z,6.93
2022-08-14T20:47:51.059Z,7.17
2022-08-14T20:52:52.087Z,7.93
2022-08-14T20:57:54.867Z,6.90
2022-08-14T21:02:58.218Z,7.17
2022-08-14T21:08:07.873Z,7.40
2022-08-14T21:14:09.092Z,7.53
2022-08-14T21:18:47.306Z,8.20
2022-08-14T21:23:48.227Z,7.30
2022-08-14T21:28:53.626Z,7.30
2022-08-14T21:33:56.348Z,7.80
2022-08-14T21:38:55.215Z,8.07
2022-08-14T21:44:17.827Z,7.60
2022-08-14T21:49:22.815Z,7.30
2022-08-14T21:54:30.352Z,8.20
2022-08-14T21:59:34.108Z,7.70
2022-08-14T22:04:40.352Z,9.30
2022-08-14T22:09:38.984Z,8.37
2022-08-14T22:14:45.114Z,7.60
2022-08-14T22:19:54.456Z,7.97
2022-08-14T22:24:53.930Z,8.23
2022-08-14T22:29:58.557Z,8.33
2022-08-14T22:34:58.058Z,9.20
2022-08-14T22:40:54.931Z,9.90
2022-08-14T22:45:14.948Z,8.80
2022-08-14T22:50:31.832Z,8.67
2022-08-14T22:55:31.365Z,8.93
2022-08-14T23:00:35.751Z,9.33
2022-08-14T23:05:40.032Z,8.93
2022-08-14T23:10:51.201Z,9.37
2022-08-14T23:15:49.141Z,9.70
2022-08-14T23:20:48.442Z,10.07
2022-08-14T23:25:59.395Z,10.00
2022-08-14T23:31:08.505Z,9.30
2022-08-14T23:36:31.928Z,9.73
2022-08-14T23:41:27.582Z,10.10
2022-08-14T23:46:45.205Z,11.13
2022-08-14T23:51:44.546Z,10.70
2022-08-14T23:56:42.793Z,10.90
